Time;durP1;ratioP1;P1;durP2;ratioP2;P2;SDS_P1;SDS_P2;PMS_P1;PMS_P2;Temp;Humidity;BMP_temperature;BMP_pressure;BME280_temperature;BME280_humidity;BME280_pressure;Samples;Min_cycle;Max_cycle;Signal;HPM_P1;HPM_P2
2021/03/23 00:00:48;;;;;;;;;;;2.10;99.90;;;;;;5079832;28;19957;-66
2021/03/23 00:03:15;;;;;;;;;;;2.30;99.90;;;;;;5068469;28;19983;-66
2021/03/23 00:05:41;;;;;;;;;;;2.20;99.90;;;;;;5087541;28;19916;-66
2021/03/23 00:08:07;;;;;;;;;;;2.30;99.90;;;;;;5083227;28;19966;-65
2021/03/23 00:10:33;;;;;;;;;;;2.20;99.90;;;;;;5073745;28;19916;-66
2021/03/23 00:12:58;;;;;;;;;;;2.10;99.90;;;;;;5078817;28;19920;-66
2021/03/23 00:15:24;;;;;;;;;;;2.10;99.90;;;;;;5087823;28;19938;-66
2021/03/23 00:17:50;;;;;;;;;;;2.20;99.90;;;;;;5088040;28;20460;-66
2021/03/23 00:20:17;;;;;;;;;;;2.20;99.90;;;;;;5085892;28;19916;-66
2021/03/23 00:22:43;;;;;;;;;;;2.20;99.90;;;;;;5085549;28;19916;-66
2021/03/23 00:25:09;;;;;;;;;;;2.00;99.90;;;;;;5080463;28;19995;-65
2021/03/23 00:27:36;;;;;;;;;;;2.10;99.90;;;;;;5086775;28;20291;-66
2021/03/23 00:30:03;;;;;;;;;;;2.10;99.90;;;;;;5084364;28;20746;-66
2021/03/23 00:32:28;;;;;;;;;;;2.10;99.90;;;;;;5083411;28;19916;-66
2021/03/23 00:34:54;;;;;;;;;;;2.10;99.90;;;;;;5070993;28;19918;-65
2021/03/23 00:37:19;;;;;;;;;;;1.90;99.90;;;;;;5078538;28;19919;-65
2021/03/23 00:39:45;;;;;;;;;;;1.80;99.90;;;;;;5086580;28;19921;-65
2021/03/23 00:42:11;;;;;;;;;;;2.00;99.90;;;;;;5070150;28;19943;-66
2021/03/23 00:44:36;;;;;;;;;;;1.90;99.90;;;;;;5064380;28;19927;-66
2021/03/23 00:47:02;;;;;;;;;;;2.00;99.90;;;;;;5091700;28;19919;-66
2021/03/23 00:49:27;;;;;;;;;;;1.90;99.90;;;;;;5063464;28;19988;-66
2021/03/23 00:51:56;;;;;;;;;;;2.10;99.90;;;;;;5085724;28;19916;-65
2021/03/23 00:54:22;;;;;;;;;;;2.00;99.90;;;;;;5077943;28;20833;-66
2021/03/23 00:56:48;;;;;;;;;;;2.20;99.90;;;;;;5081349;28;19956;-65
2021/03/23 00:59:13;;;;;;;;;;;2.20;99.90;;;;;;5087363;28;19926;-65
2021/03/23 01:01:39;;;;;;;;;;;2.00;99.90;;;;;;5077896;28;19916;-65
2021/03/23 01:04:05;;;;;;;;;;;1.90;99.90;;;;;;5088364;28;19965;-66
2021/03/23 01:06:30;;;;;;;;;;;1.80;99.90;;;;;;5085092;28;19999;-66
2021/03/23 01:08:56;;;;;;;;;;;1.90;99.90;;;;;;5082306;28;20053;-66
2021/03/23 01:11:21;;;;;;;;;;;1.90;99.90;;;;;;5068123;28;19916;-66
2021/03/23 01:13:47;;;;;;;;;;;1.60;99.90;;;;;;5081626;28;20481;-66
2021/03/23 01:16:12;;;;;;;;;;;1.80;99.90;;;;;;5082976;28;20043;-66
2021/03/23 01:18:38;;;;;;;;;;;1.80;99.90;;;;;;5088342;28;19927;-66
2021/03/23 01:21:04;;;;;;;;;;;1.70;99.90;;;;;;5083091;28;19956;-65
2021/03/23 01:23:29;;;;;;;;;;;1.80;99.90;;;;;;5094435;28;20432;-66
2021/03/23 01:25:55;;;;;;;;;;;1.60;99.90;;;;;;5085503;28;19922;-65
2021/03/23 01:28:20;;;;;;;;;;;1.70;99.90;;;;;;5088097;28;19919;-65
2021/03/23 01:30:46;;;;;;;;;;;1.50;99.90;;;;;;5073066;28;19916;-65
2021/03/23 01:33:11;;;;;;;;;;;1.40;99.90;;;;;;5085589;28;19919;-65
2021/03/23 01:35:37;;;;;;;;;;;1.20;99.90;;;;;;5091107;28;19916;-65
2021/03/23 01:38:03;;;;;;;;;;;1.60;99.90;;;;;;5087050;28;20746;-66
2021/03/23 01:40:29;;;;;;;;;;;1.40;99.90;;;;;;5087327;28;19943;-66
2021/03/23 01:42:56;;;;;;;;;;;1.30;99.90;;;;;;5088702;28;19916;-66
2021/03/23 01:45:24;;;;;;;;;;;1.40;99.90;;;;;;5084246;28;19912;-67
2021/03/23 01:47:50;;;;;;;;;;;1.60;99.90;;;;;;5091802;28;20388;-66
2021/03/23 01:50:17;;;;;;;;;;;1.50;99.90;;;;;;5086536;28;19923;-66
2021/03/23 01:52:44;;;;;;;;;;;1.40;99.90;;;;;;5089817;28;19920;-66
2021/03/23 01:55:12;;;;;;;;;;;1.20;99.90;;;;;;5068741;28;19934;-65
2021/03/23 01:57:38;;;;;;;;;;;1.10;99.90;;;;;;5079704;28;19943;-65
2021/03/23 02:00:06;;;;;;;;;;;1.30;99.90;;;;;;5093094;28;20379;-66
2021/03/23 02:02:32;;;;;;;;;;;1.10;99.90;;;;;;5088966;28;19976;-66
2021/03/23 02:04:59;;;;;;;;;;;1.20;99.90;;;;;;5086761;28;19913;-66
2021/03/23 02:07:25;;;;;;;;;;;1.20;99.90;;;;;;5075505;28;19915;-66
2021/03/23 02:09:54;;;;;;;;;;;1.10;99.90;;;;;;5079822;28;19922;-66
2021/03/23 02:12:23;;;;;;;;;;;1.20;99.90;;;;;;5073841;28;19969;-66
2021/03/23 02:14:48;;;;;;;;;;;0.80;99.90;;;;;;5085068;28;19916;-66
2021/03/23 02:17:14;;;;;;;;;;;1.00;99.90;;;;;;5086337;28;19916;-65
2021/03/23 02:19:40;;;;;;;;;;;0.80;99.90;;;;;;5095628;28;19930;-65
2021/03/23 02:22:08;;;;;;;;;;;0.80;99.90;;;;;;5067266;28;19947;-65
2021/03/23 02:24:34;;;;;;;;;;;0.70;99.90;;;;;;5069470;28;20269;-66
2021/03/23 02:26:59;;;;;;;;;;;0.90;99.90;;;;;;5089304;28;19912;-65
2021/03/23 02:29:26;;;;;;;;;;;0.80;99.90;;;;;;5085746;28;19916;-66
2021/03/23 02:31:52;;;;;;;;;;;0.80;99.90;;;;;;5077848;28;19912;-66
2021/03/23 02:34:19;;;;;;;;;;;0.70;99.90;;;;;;5069644;28;20422;-66
2021/03/23 02:36:45;;;;;;;;;;;0.90;99.90;;;;;;5086320;28;19916;-66
2021/03/23 02:39:12;;;;;;;;;;;0.70;99.90;;;;;;5073261;28;20049;-65
2021/03/23 02:41:38;;;;;;;;;;;0.80;99.90;;;;;;5084072;28;20039;-65
2021/03/23 02:44:04;;;;;;;;;;;0.90;99.90;;;;;;5074896;28;19998;-66
2021/03/23 02:46:29;;;;;;;;;;;0.60;99.90;;;;;;5065976;28;19916;-65
2021/03/23 02:48:55;;;;;;;;;;;1.00;99.90;;;;;;5088029;28;19923;-66
2021/03/23 02:51:20;;;;;;;;;;;0.90;99.90;;;;;;5103091;27;19913;-65
2021/03/23 02:53:47;;;;;;;;;;;0.90;99.90;;;;;;5067751;28;19917;-65
2021/03/23 02:56:13;;;;;;;;;;;0.70;99.90;;;;;;5089366;28;19927;-66
2021/03/23 02:58:38;;;;;;;;;;;0.60;99.90;;;;;;5085700;28;19916;-66
2021/03/23 03:01:05;;;;;;;;;;;0.50;99.90;;;;;;5088642;28;19959;-65
2021/03/23 03:03:31;;;;;;;;;;;0.40;99.90;;;;;;5093208;28;20172;-66
2021/03/23 03:05:56;;;;;;;;;;;0.40;99.90;;;;;;5085998;28;19965;-66
2021/03/23 03:08:22;;;;;;;;;;;0.40;99.90;;;;;;5075586;28;20278;-65
2021/03/23 03:10:48;;;;;;;;;;;0.60;99.90;;;;;;5087728;28;19912;-66
2021/03/23 03:13:14;;;;;;;;;;;0.40;99.90;;;;;;5089096;28;19959;-65
2021/03/23 03:15:41;;;;;;;;;;;0.40;99.90;;;;;;5096258;28;19945;-66
2021/03/23 03:18:06;;;;;;;;;;;0.40;99.90;;;;;;5064544;28;19916;-65
2021/03/23 03:20:32;;;;;;;;;;;0.30;99.90;;;;;;5094753;28;19988;-66
2021/03/23 03:22:57;;;;;;;;;;;0.20;99.90;;;;;;5087564;28;20007;-66
2021/03/23 03:25:23;;;;;;;;;;;0.30;99.90;;;;;;5086280;28;19912;-66
2021/03/23 03:27:48;;;;;;;;;;;0.20;99.90;;;;;;5087633;28;20367;-66
2021/03/23 03:30:21;;;;;;;;;;;0.40;99.90;;;;;;5084609;28;19999;-66
2021/03/23 03:32:47;;;;;;;;;;;0.20;99.90;;;;;;5076226;28;19916;-66
2021/03/23 03:35:13;;;;;;;;;;;0.20;99.90;;;;;;5070697;28;19934;-65
2021/03/23 03:37:39;;;;;;;;;;;-0.10;99.90;;;;;;5074657;28;19959;-65
2021/03/23 03:40:09;;;;;;;;;;;0.00;99.90;;;;;;5095783;28;19912;-66
2021/03/23 03:42:35;;;;;;;;;;;-0.20;99.90;;;;;;5064610;28;19912;-66
2021/03/23 03:45:00;;;;;;;;;;;0.00;99.90;;;;;;5095117;28;20495;-66
2021/03/23 03:47:26;;;;;;;;;;;0.10;99.90;;;;;;5089815;28;19909;-66
2021/03/23 03:49:51;;;;;;;;;;;0.10;99.90;;;;;;5088207;28;19921;-65
2021/03/23 03:52:17;;;;;;;;;;;0.00;99.90;;;;;;5095698;28;19920;-66
2021/03/23 03:54:42;;;;;;;;;;;-0.10;99.90;;;;;;5080878;28;20011;-65
2021/03/23 03:57:08;;;;;;;;;;;0.20;99.90;;;;;;5093020;28;19927;-65
2021/03/23 03:59:33;;;;;;;;;;;0.20;99.90;;;;;;5088117;28;19967;-65
2021/03/23 04:01:59;;;;;;;;;;;0.40;99.90;;;;;;5070620;28;19912;-65
2021/03/23 04:04:25;;;;;;;;;;;0.40;99.90;;;;;;5088572;28;20299;-65
2021/03/23 04:06:50;;;;;;;;;;;0.60;99.90;;;;;;5083482;28;19939;-66
2021/03/23 04:09:16;;;;;;;;;;;0.50;99.90;;;;;;5085598;28;19919;-66
2021/03/23 04:11:41;;;;;;;;;;;0.50;99.90;;;;;;5085146;28;19960;-64
2021/03/23 04:14:07;;;;;;;;;;;0.30;99.90;;;;;;5063562;28;19952;-68
2021/03/23 04:16:32;;;;;;;;;;;0.50;99.90;;;;;;5088869;28;19916;-66
2021/03/23 04:18:58;;;;;;;;;;;0.30;99.90;;;;;;5080612;28;19969;-67
2021/03/23 04:21:23;;;;;;;;;;;0.40;99.90;;;;;;5084725;28;19920;-67
2021/03/23 04:23:49;;;;;;;;;;;0.60;99.90;;;;;;5084829;28;20442;-67
2021/03/23 04:26:14;;;;;;;;;;;0.30;99.90;;;;;;5081508;28;20361;-68
2021/03/23 04:28:40;;;;;;;;;;;0.60;99.90;;;;;;5074751;28;19916;-67
2021/03/23 04:31:07;;;;;;;;;;;0.50;99.90;;;;;;5078183;28;20023;-67
2021/03/23 04:33:32;;;;;;;;;;;0.50;99.90;;;;;;5072411;28;20536;-67
2021/03/23 04:36:02;;;;;;;;;;;0.50;99.90;;;;;;5084871;28;19927;-67
2021/03/23 04:38:32;;;;;;;;;;;0.50;99.90;;;;;;5077488;28;19924;-67
2021/03/23 04:40:58;;;;;;;;;;;0.40;99.90;;;;;;5092139;28;19920;-67
2021/03/23 04:43:26;;;;;;;;;;;0.70;99.90;;;;;;5081803;28;19912;-66
2021/03/23 04:45:52;;;;;;;;;;;0.70;99.90;;;;;;5085433;28;20005;-68
2021/03/23 04:48:17;;;;;;;;;;;0.90;99.90;;;;;;5088667;28;19961;-67
2021/03/23 04:50:43;;;;;;;;;;;0.80;99.90;;;;;;5079953;28;19916;-66
2021/03/23 04:53:16;;;;;;;;;;;0.60;99.90;;;;;;5092323;28;19916;-68
2021/03/23 04:55:42;;;;;;;;;;;0.60;99.90;;;;;;5082575;28;20384;-68
2021/03/23 04:58:07;;;;;;;;;;;0.00;99.90;;;;;;5067013;28;19916;-66
2021/03/23 05:00:33;;;;;;;;;;;0.50;99.90;;;;;;5082047;28;19916;-67
2021/03/23 05:02:58;;;;;;;;;;;0.60;99.90;;;;;;5080020;28;19920;-67
2021/03/23 05:05:24;;;;;;;;;;;0.50;99.90;;;;;;5091306;28;19973;-68
2021/03/23 05:07:49;;;;;;;;;;;1.10;99.90;;;;;;5065270;28;19954;-68
2021/03/23 05:10:15;;;;;;;;;;;0.40;99.90;;;;;;5066304;28;19919;-68
2021/03/23 05:12:40;;;;;;;;;;;0.20;99.90;;;;;;5088567;28;19916;-67
2021/03/23 05:15:07;;;;;;;;;;;0.50;99.90;;;;;;5065775;28;19912;-67
2021/03/23 05:17:32;;;;;;;;;;;0.30;99.90;;;;;;5088848;28;19924;-68
2021/03/23 05:19:58;;;;;;;;;;;0.40;99.90;;;;;;5065896;28;20464;-68
2021/03/23 05:22:23;;;;;;;;;;;0.40;99.90;;;;;;5070585;28;19915;-67
2021/03/23 05:24:49;;;;;;;;;;;0.40;99.90;;;;;;5090886;28;19995;-67
2021/03/23 05:27:16;;;;;;;;;;;0.40;99.90;;;;;;5064510;28;19951;-68
2021/03/23 05:29:41;;;;;;;;;;;0.40;99.90;;;;;;5086092;28;19917;-68
2021/03/23 05:32:08;;;;;;;;;;;0.30;99.90;;;;;;5083469;28;20336;-67
2021/03/23 05:34:33;;;;;;;;;;;0.40;99.90;;;;;;5080754;28;19923;-67
2021/03/23 05:36:59;;;;;;;;;;;0.50;99.90;;;;;;5080937;28;19916;-68
2021/03/23 05:39:24;;;;;;;;;;;0.40;99.90;;;;;;5081479;28;19952;-66
2021/03/23 05:41:50;;;;;;;;;;;1.00;99.90;;;;;;5086054;28;20402;-67
2021/03/23 05:44:20;;;;;;;;;;;1.30;99.90;;;;;;5083793;28;20715;-68
2021/03/23 05:46:46;;;;;;;;;;;0.80;99.90;;;;;;5071063;28;20459;-67
2021/03/23 05:49:11;;;;;;;;;;;1.10;99.90;;;;;;5089199;28;19997;-67
2021/03/23 05:51:37;;;;;;;;;;;1.10;99.90;;;;;;5079327;28;19951;-67
2021/03/23 05:54:18;;;;;;;;;;;1.20;99.90;;;;;;5069468;28;19916;-67
2021/03/23 05:56:44;;;;;;;;;;;0.90;99.90;;;;;;5080427;28;19920;-67
2021/03/23 05:59:14;;;;;;;;;;;1.10;99.90;;;;;;5078061;28;19955;-67
2021/03/23 06:01:46;;;;;;;;;;;0.90;99.90;;;;;;5081927;28;20082;-67
2021/03/23 06:04:25;;;;;;;;;;;0.90;99.90;;;;;;5063446;28;20284;-67
2021/03/23 06:06:50;;;;;;;;;;;0.80;99.90;;;;;;5084352;28;20013;-67
2021/03/23 06:09:16;;;;;;;;;;;1.10;99.90;;;;;;5088450;28;20007;-67
2021/03/23 06:11:42;;;;;;;;;;;0.90;99.90;;;;;;5083390;28;20058;-67
2021/03/23 06:14:17;;;;;;;;;;;1.10;99.90;;;;;;5088968;28;20411;-67
2021/03/23 06:17:01;;;;;;;;;;;1.00;99.90;;;;;;5101939;27;20487;-67
2021/03/23 06:19:44;;;;;;;;;;;1.10;99.90;;;;;;5084476;28;20551;-67
2021/03/23 06:22:28;;;;;;;;;;;1.10;99.90;;;;;;5090489;28;20007;-67
2021/03/23 06:24:58;;;;;;;;;;;1.10;99.90;;;;;;5087337;28;19916;-67
2021/03/23 06:27:30;;;;;;;;;;;1.40;99.90;;;;;;5064880;28;20090;-67
2021/03/23 06:30:07;;;;;;;;;;;1.40;99.90;;;;;;5084148;28;19916;-67
2021/03/23 06:32:35;;;;;;;;;;;1.50;99.90;;;;;;5084159;28;20001;-67
2021/03/23 06:35:02;;;;;;;;;;;1.40;99.90;;;;;;5087427;28;20287;-67
2021/03/23 06:37:30;;;;;;;;;;;1.00;99.90;;;;;;5087009;28;19923;-67
2021/03/23 06:39:56;;;;;;;;;;;1.50;99.90;;;;;;5087170;28;19912;-67
2021/03/23 06:42:31;;;;;;;;;;;1.90;99.90;;;;;;5089869;28;19927;-66
2021/03/23 06:45:07;;;;;;;;;;;1.90;99.90;;;;;;5087840;28;19954;-67
2021/03/23 06:47:37;;;;;;;;;;;2.10;99.90;;;;;;5078805;28;19927;-66
2021/03/23 06:50:21;;;;;;;;;;;2.00;99.90;;;;;;5093062;28;19952;-67
2021/03/23 06:53:01;;;;;;;;;;;2.00;99.90;;;;;;5082511;28;20265;-67
2021/03/23 06:55:27;;;;;;;;;;;2.50;99.90;;;;;;5080737;28;20529;-67
2021/03/23 06:57:52;;;;;;;;;;;2.40;99.90;;;;;;5093798;28;19985;-67
2021/03/23 07:00:20;;;;;;;;;;;2.30;99.90;;;;;;5081292;28;19946;-67
2021/03/23 07:02:47;;;;;;;;;;;2.30;99.90;;;;;;5071319;28;19923;-67
2021/03/23 07:05:15;;;;;;;;;;;2.50;99.90;;;;;;5086467;28;19926;-67
2021/03/23 07:07:51;;;;;;;;;;;2.20;99.90;;;;;;5086712;28;20363;-66
2021/03/23 07:10:19;;;;;;;;;;;2.30;99.90;;;;;;5086740;28;20008;-66
2021/03/23 07:12:45;;;;;;;;;;;2.30;99.90;;;;;;5085207;28;20033;-67
2021/03/23 07:15:14;;;;;;;;;;;2.60;99.90;;;;;;5066504;28;19927;-67
2021/03/23 07:17:43;;;;;;;;;;;2.60;99.90;;;;;;5088838;28;19923;-67
2021/03/23 07:20:16;;;;;;;;;;;2.60;99.90;;;;;;5080380;28;19923;-67
2021/03/23 07:22:50;;;;;;;;;;;2.80;99.90;;;;;;5090405;28;20390;-67
2021/03/23 07:25:28;;;;;;;;;;;2.70;99.90;;;;;;5082453;28;20003;-67
2021/03/23 07:28:12;;;;;;;;;;;2.90;99.90;;;;;;5082512;28;19916;-67
2021/03/23 07:30:41;;;;;;;;;;;3.00;99.90;;;;;;5092797;28;20022;-66
2021/03/23 07:33:12;;;;;;;;;;;3.00;99.90;;;;;;5085369;28;20632;-68
2021/03/23 07:35:40;;;;;;;;;;;3.30;99.90;;;;;;5084427;28;20332;-68
2021/03/23 07:38:23;;;;;;;;;;;3.00;99.90;;;;;;5071432;28;19963;-68
2021/03/23 07:40:51;;;;;;;;;;;3.30;99.90;;;;;;5080001;28;20291;-69
2021/03/23 07:43:17;;;;;;;;;;;3.50;99.90;;;;;;5062994;28;19923;-68
2021/03/23 07:45:59;;;;;;;;;;;3.30;99.90;;;;;;5087509;28;19916;-68
2021/03/23 07:48:29;;;;;;;;;;;3.40;99.90;;;;;;5078700;28;19920;-67
2021/03/23 07:50:59;;;;;;;;;;;3.60;99.90;;;;;;5089623;28;19970;-67
2021/03/23 07:53:38;;;;;;;;;;;3.70;99.90;;;;;;5083038;28;20617;-67
2021/03/23 07:56:27;;;;;;;;;;;3.40;99.90;;;;;;5079261;28;19927;-67
2021/03/23 07:59:09;;;;;;;;;;;3.60;99.90;;;;;;5055209;28;20450;-67
2021/03/23 08:01:36;;;;;;;;;;;3.80;99.90;;;;;;5088971;28;19958;-67
2021/03/23 08:04:04;;;;;;;;;;;4.30;99.90;;;;;;5069682;28;19924;-67
2021/03/23 08:06:33;;;;;;;;;;;4.30;99.90;;;;;;5086254;28;19911;-67
2021/03/23 08:09:18;;;;;;;;;;;3.80;99.90;;;;;;5079906;28;20375;-67
2021/03/23 08:11:57;;;;;;;;;;;3.90;99.90;;;;;;5080581;28;19944;-67
2021/03/23 08:14:41;;;;;;;;;;;4.20;99.90;;;;;;5087529;28;19934;-66
2021/03/23 08:17:25;;;;;;;;;;;4.10;99.90;;;;;;5080486;28;19923;-67
2021/03/23 08:20:09;;;;;;;;;;;4.00;99.90;;;;;;5060185;28;20371;-66
2021/03/23 08:22:59;;;;;;;;;;;4.10;99.90;;;;;;5108250;27;19960;-67
2021/03/23 08:25:30;;;;;;;;;;;4.10;99.90;;;;;;5084484;28;19912;-66
2021/03/23 08:28:18;;;;;;;;;;;4.10;99.90;;;;;;5079742;28;20011;-67
2021/03/23 08:30:44;;;;;;;;;;;4.00;99.90;;;;;;5107056;27;19965;-66
2021/03/23 08:33:27;;;;;;;;;;;4.60;99.90;;;;;;5081656;28;19916;-66
2021/03/23 08:36:04;;;;;;;;;;;3.80;99.90;;;;;;5066058;28;19931;-66
2021/03/23 08:38:29;;;;;;;;;;;3.80;99.90;;;;;;5091389;28;20082;-67
2021/03/23 08:40:57;;;;;;;;;;;3.90;99.90;;;;;;5079417;28;20356;-67
2021/03/23 08:43:37;;;;;;;;;;;3.90;99.90;;;;;;5084816;28;19917;-67
2021/03/23 08:46:04;;;;;;;;;;;4.00;99.90;;;;;;5076341;28;19973;-68
2021/03/23 08:48:33;;;;;;;;;;;4.30;99.90;;;;;;5065957;28;19916;-67
2021/03/23 08:51:00;;;;;;;;;;;3.90;99.90;;;;;;5088289;28;19920;-65
2021/03/23 08:53:31;;;;;;;;;;;4.10;99.90;;;;;;5081571;28;20512;-66
2021/03/23 08:55:57;;;;;;;;;;;4.10;99.90;;;;;;5063601;28;19920;-65
2021/03/23 08:58:39;;;;;;;;;;;4.20;99.90;;;;;;5088931;28;19985;-66
2021/03/23 09:01:05;;;;;;;;;;;4.10;99.90;;;;;;5076258;28;19916;-67
2021/03/23 09:03:42;;;;;;;;;;;4.20;99.90;;;;;;5071836;28;19923;-66
2021/03/23 09:06:10;;;;;;;;;;;3.90;99.90;;;;;;5081999;28;19920;-68
2021/03/23 09:08:36;;;;;;;;;;;4.30;99.90;;;;;;5067603;28;19969;-68
2021/03/23 09:11:06;;;;;;;;;;;4.30;99.90;;;;;;5091975;28;20007;-67
2021/03/23 09:13:34;;;;;;;;;;;4.20;99.90;;;;;;5066935;28;19927;-69
2021/03/23 09:16:01;;;;;;;;;;;4.50;99.90;;;;;;5083695;28;19977;-69
2021/03/23 09:18:28;;;;;;;;;;;4.70;99.90;;;;;;5089221;28;19920;-69
2021/03/23 09:20:56;;;;;;;;;;;4.80;99.90;;;;;;5063166;28;19958;-68
2021/03/23 09:23:34;;;;;;;;;;;5.00;99.90;;;;;;5092399;28;19916;-66
2021/03/23 09:26:00;;;;;;;;;;;4.70;99.90;;;;;;5082706;28;20041;-68
2021/03/23 09:28:29;;;;;;;;;;;5.30;99.90;;;;;;5083991;28;20355;-67
2021/03/23 09:30:56;;;;;;;;;;;4.60;99.90;;;;;;5083539;28;20371;-69
2021/03/23 09:33:22;;;;;;;;;;;5.30;99.90;;;;;;5080106;28;19922;-70
2021/03/23 09:38:33;;;;;;;;;;;4.60;99.90;;;;;;5085778;28;19927;-67
2021/03/23 09:41:04;;;;;;;;;;;4.80;99.90;;;;;;5087111;28;19919;-68
2021/03/23 09:43:35;;;;;;;;;;;5.50;99.90;;;;;;5089835;28;19916;-66
2021/03/23 09:46:04;;;;;;;;;;;4.90;99.90;;;;;;5065003;28;20032;-66
2021/03/23 09:48:47;;;;;;;;;;;4.90;99.90;;;;;;5084532;28;19915;-66
2021/03/23 09:51:16;;;;;;;;;;;5.00;99.90;;;;;;5094783;28;19911;-67
2021/03/23 09:53:43;;;;;;;;;;;5.30;99.90;;;;;;5083303;28;20003;-66
2021/03/23 09:56:08;;;;;;;;;;;5.20;99.90;;;;;;5091217;28;20350;-68
2021/03/23 09:58:34;;;;;;;;;;;5.10;99.90;;;;;;5085648;28;19920;-66
2021/03/23 10:01:00;;;;;;;;;;;;;;;;;;5086173;28;20445;-67
2021/03/23 10:03:27;;;;;;;;;;;;;;;;;;5095332;28;19961;-67
2021/03/23 10:06:00;;;;;;;;;;;5.10;99.90;;;;;;5084961;28;20281;-67
2021/03/23 10:08:32;;;;;;;;;;;;;;;;;;5090016;28;19947;-68
2021/03/23 10:11:05;;;;;;;;;;;5.60;99.90;;;;;;5089433;28;19916;-68
2021/03/23 10:13:31;;;;;;;;;;;6.00;99.90;;;;;;5077063;28;19920;-67
2021/03/23 10:16:00;;;;;;;;;;;6.80;99.90;;;;;;5075348;28;19919;-66
2021/03/23 10:18:27;;;;;;;;;;;6.30;99.90;;;;;;5086588;28;20014;-68
2021/03/23 10:20:55;;;;;;;;;;;6.30;99.90;;;;;;5087508;28;19994;-67
2021/03/23 10:23:22;;;;;;;;;;;6.10;99.90;;;;;;5084392;28;19916;-66
2021/03/23 10:25:49;;;;;;;;;;;6.00;99.90;;;;;;5083277;28;19912;-68
2021/03/23 10:28:23;;;;;;;;;;;6.30;99.90;;;;;;5088316;28;19920;-68
2021/03/23 10:30:56;;;;;;;;;;;7.60;99.90;;;;;;5087238;28;19923;-66
2021/03/23 10:33:22;;;;;;;;;;;6.40;99.90;;;;;;5086820;28;19968;-67
2021/03/23 10:36:08;;;;;;;;;;;6.80;99.90;;;;;;5070577;28;19912;-68
2021/03/23 10:38:37;;;;;;;;;;;7.10;99.90;;;;;;5085781;28;19950;-66
2021/03/23 10:41:17;;;;;;;;;;;6.90;99.90;;;;;;5086672;28;19912;-67
2021/03/23 10:43:44;;;;;;;;;;;6.90;99.90;;;;;;5094604;28;19920;-66
2021/03/23 10:46:28;;;;;;;;;;;7.20;99.90;;;;;;5067297;28;19966;-68
2021/03/23 10:49:10;;;;;;;;;;;6.80;99.90;;;;;;5088658;28;19916;-66
2021/03/23 10:51:38;;;;;;;;;;;6.70;99.90;;;;;;5075759;28;20605;-68
2021/03/23 10:54:06;;;;;;;;;;;6.70;99.90;;;;;;5067731;28;19920;-68
2021/03/23 10:56:33;;;;;;;;;;;6.50;99.90;;;;;;5068569;28;20076;-67
2021/03/23 10:59:05;;;;;;;;;;;6.60;99.90;;;;;;5086442;28;19924;-67
2021/03/23 11:01:31;;;;;;;;;;;6.50;99.90;;;;;;5080183;28;19920;-67
2021/03/23 11:04:09;;;;;;;;;;;6.90;99.90;;;;;;5094334;28;19965;-68
2021/03/23 11:06:35;;;;;;;;;;;6.50;99.90;;;;;;5084299;28;19919;-67
2021/03/23 11:09:01;;;;;;;;;;;6.10;99.90;;;;;;5089737;28;19923;-67
2021/03/23 11:11:26;;;;;;;;;;;6.10;99.90;;;;;;5083819;28;19912;-66
2021/03/23 11:13:52;;;;;;;;;;;6.00;99.90;;;;;;5085203;28;20383;-68
2021/03/23 11:16:20;;;;;;;;;;;5.80;99.90;;;;;;5093597;28;19961;-65
2021/03/23 11:18:47;;;;;;;;;;;5.90;99.90;;;;;;5078447;28;20370;-65
2021/03/23 11:21:14;;;;;;;;;;;6.10;99.90;;;;;;5079872;28;19974;-68
2021/03/23 11:23:46;;;;;;;;;;;5.80;99.90;;;;;;5081642;28;19928;-63
2021/03/23 11:26:14;;;;;;;;;;;6.30;99.90;;;;;;5081858;28;19912;-63
2021/03/23 11:28:40;;;;;;;;;;;6.50;99.90;;;;;;5084057;28;19912;-64
2021/03/23 11:31:07;;;;;;;;;;;6.60;99.90;;;;;;5086337;28;19938;-64
2021/03/23 11:33:33;;;;;;;;;;;7.50;99.90;;;;;;5065660;28;19986;-63
2021/03/23 11:36:01;;;;;;;;;;;8.70;99.90;;;;;;5080555;28;21189;-63
2021/03/23 11:38:27;;;;;;;;;;;9.90;99.90;;;;;;5079238;28;19920;-62
2021/03/23 11:40:54;;;;;;;;;;;10.70;99.90;;;;;;5098367;27;19912;-62
2021/03/23 11:43:33;;;;;;;;;;;11.10;99.90;;;;;;5085402;28;20454;-64
2021/03/23 11:46:01;;;;;;;;;;;11.20;99.90;;;;;;5074495;28;19950;-62
2021/03/23 11:48:27;;;;;;;;;;;11.30;99.90;;;;;;5085470;28;19917;-64
2021/03/23 11:50:53;;;;;;;;;;;12.30;99.90;;;;;;5075963;28;19913;-62
2021/03/23 11:53:19;;;;;;;;;;;12.60;98.50;;;;;;5081443;28;19922;-62
2021/03/23 11:55:46;;;;;;;;;;;12.30;97.90;;;;;;5086367;28;19911;-61
2021/03/23 11:58:13;;;;;;;;;;;12.90;98.40;;;;;;5080193;28;19920;-60
2021/03/23 12:00:39;;;;;;;;;;;12.40;97.30;;;;;;5062312;28;19913;-62
2021/03/23 12:03:08;;;;;;;;;;;13.10;95.20;;;;;;5079099;28;19919;-62
2021/03/23 12:05:36;;;;;;;;;;;13.60;95.60;;;;;;5084557;28;20402;-63
2021/03/23 12:08:07;;;;;;;;;;;13.20;95.70;;;;;;5084007;28;20284;-62
2021/03/23 12:10:52;;;;;;;;;;;12.30;95.40;;;;;;5063821;28;19920;-62
2021/03/23 12:13:35;;;;;;;;;;;11.10;95.90;;;;;;5091423;28;19996;-62
2021/03/23 12:16:07;;;;;;;;;;;10.60;97.10;;;;;;5084006;28;19922;-63
2021/03/23 12:18:33;;;;;;;;;;;9.60;97.40;;;;;;5083968;28;19981;-63
2021/03/23 12:21:01;;;;;;;;;;;9.70;98.10;;;;;;5090184;28;19947;-63
2021/03/23 12:23:27;;;;;;;;;;;8.90;98.70;;;;;;5067301;28;19997;-62
2021/03/23 12:25:54;;;;;;;;;;;8.40;99.40;;;;;;5087789;28;19923;-62
2021/03/23 12:28:19;;;;;;;;;;;8.30;99.90;;;;;;5084736;28;19934;-63
2021/03/23 12:30:45;;;;;;;;;;;8.30;99.90;;;;;;5077424;28;20294;-63
2021/03/23 12:33:10;;;;;;;;;;;7.70;99.90;;;;;;5095922;28;19928;-62
2021/03/23 12:35:36;;;;;;;;;;;7.40;99.90;;;;;;5084232;28;19916;-63
2021/03/23 12:38:04;;;;;;;;;;;7.30;99.90;;;;;;5081983;28;20302;-63
2021/03/23 12:40:30;;;;;;;;;;;7.20;99.90;;;;;;5091811;28;20375;-63
2021/03/23 12:42:56;;;;;;;;;;;7.20;99.90;;;;;;5061141;28;19919;-63
2021/03/23 12:45:29;;;;;;;;;;;7.30;99.90;;;;;;5083735;28;19981;-62
2021/03/23 12:47:55;;;;;;;;;;;7.10;99.90;;;;;;5084683;28;19923;-63
2021/03/23 12:50:21;;;;;;;;;;;7.30;99.90;;;;;;5084851;28;19912;-63
2021/03/23 12:52:47;;;;;;;;;;;7.30;99.90;;;;;;5088058;28;19915;-62
2021/03/23 12:55:18;;;;;;;;;;;8.00;99.90;;;;;;5077304;28;19916;-63
2021/03/23 12:57:43;;;;;;;;;;;7.10;99.90;;;;;;5088935;28;20652;-63
2021/03/23 13:00:11;;;;;;;;;;;7.10;99.90;;;;;;5085825;28;19915;-63
2021/03/23 13:02:37;;;;;;;;;;;7.00;99.90;;;;;;5066698;28;20776;-64
2021/03/23 13:05:03;;;;;;;;;;;7.00;99.90;;;;;;5081227;28;19927;-63
2021/03/23 13:07:32;;;;;;;;;;;7.00;99.90;;;;;;5080032;28;20553;-63
2021/03/23 13:09:58;;;;;;;;;;;7.10;99.90;;;;;;5069200;28;19988;-63
2021/03/23 13:12:25;;;;;;;;;;;7.00;99.90;;;;;;5067526;28;19989;-63
2021/03/23 13:14:51;;;;;;;;;;;7.20;99.90;;;;;;5082033;28;19984;-62
2021/03/23 13:17:17;;;;;;;;;;;7.20;99.90;;;;;;5094822;28;20319;-62
2021/03/23 13:19:42;;;;;;;;;;;7.20;99.90;;;;;;5084260;28;19920;-62
2021/03/23 13:22:13;;;;;;;;;;;7.30;99.90;;;;;;5091231;28;21233;-63
2021/03/23 13:24:40;;;;;;;;;;;7.00;99.90;;;;;;5086065;28;20065;-62
2021/03/23 13:27:12;;;;;;;;;;;7.20;99.90;;;;;;5097109;27;19923;-61
2021/03/23 13:29:38;;;;;;;;;;;7.00;99.90;;;;;;5089825;28;19941;-62
2021/03/23 13:32:03;;;;;;;;;;;7.30;99.90;;;;;;5101619;27;19919;-63
2021/03/23 13:34:29;;;;;;;;;;;6.90;99.90;;;;;;5087802;28;19924;-62
2021/03/23 13:36:56;;;;;;;;;;;7.30;99.90;;;;;;5104897;27;19916;-62
2021/03/23 13:39:26;;;;;;;;;;;6.90;99.90;;;;;;5065581;28;19916;-63
2021/03/23 13:41:53;;;;;;;;;;;7.30;99.90;;;;;;5072382;28;19928;-63
2021/03/23 13:44:42;;;;;;;;;;;7.30;99.90;;;;;;5085106;28;19916;-62
2021/03/23 13:47:09;;;;;;;;;;;6.80;99.90;;;;;;5074357;28;20435;-63
2021/03/23 13:49:34;;;;;;;;;;;6.90;99.90;;;;;;5090672;28;19954;-63
2021/03/23 13:52:00;;;;;;;;;;;7.00;99.90;;;;;;5083442;28;19955;-62
2021/03/23 13:54:25;;;;;;;;;;;6.80;99.90;;;;;;5088586;28;20467;-62
2021/03/23 13:56:51;;;;;;;;;;;7.10;99.90;;;;;;5089306;28;19916;-63
2021/03/23 13:59:19;;;;;;;;;;;6.70;99.90;;;;;;5084786;28;20439;-61
2021/03/23 14:01:45;;;;;;;;;;;6.80;99.90;;;;;;5089073;28;20007;-63
2021/03/23 14:04:12;;;;;;;;;;;7.10;99.90;;;;;;5086882;28;20034;-63
2021/03/23 14:06:38;;;;;;;;;;;7.30;99.90;;;;;;5086226;28;19916;-62
2021/03/23 14:09:05;;;;;;;;;;;7.20;99.90;;;;;;5093653;28;19912;-62
2021/03/23 14:11:31;;;;;;;;;;;6.90;99.90;;;;;;5083612;28;20031;-61
2021/03/23 14:13:56;;;;;;;;;;;7.00;99.90;;;;;;5072148;28;20633;-63
2021/03/23 14:16:22;;;;;;;;;;;7.20;99.90;;;;;;5085648;28;19916;-62
2021/03/23 14:18:48;;;;;;;;;;;7.00;99.90;;;;;;5094821;28;19927;-62
2021/03/23 14:21:22;;;;;;;;;;;7.30;99.90;;;;;;5093658;28;19922;-63
2021/03/23 14:23:50;;;;;;;;;;;8.40;99.90;;;;;;5076803;28;20000;-63
2021/03/23 14:26:16;;;;;;;;;;;7.50;99.90;;;;;;5082033;28;20011;-63
2021/03/23 14:28:50;;;;;;;;;;;7.70;99.90;;;;;;5070441;28;20007;-62
2021/03/23 14:31:16;;;;;;;;;;;7.70;99.90;;;;;;5080648;28;20059;-62
2021/03/23 14:33:41;;;;;;;;;;;7.50;99.90;;;;;;5093577;28;19920;-63
2021/03/23 14:36:07;;;;;;;;;;;7.50;99.90;;;;;;5080901;28;19919;-63
2021/03/23 14:38:36;;;;;;;;;;;7.40;99.90;;;;;;5087787;28;19924;-62
2021/03/23 14:41:03;;;;;;;;;;;7.50;99.90;;;;;;5083568;28;20222;-62